Denver, CO

9:03 AM MST on March 01, 2015 (GMT -0700)
Centennial | Change Station
CLOSE
Current Station
Airport
Location: Denver Centennial,
Elevation: 5883 ft
Nearby Weather Stations

Elev 5883 ft 39.56 °N, 104.85 °W | Updated 10 minutes ago

Overcast
Overcast
17 °F
Feels Like 12 °F
N
4
Wind Variable Wind from ESE

Today
High -- | Low -- °F
--% Chance of Precip.
Yesterday
High -- | Low -- °F
Precip. -- in
6:33 AM 5:51 PM
Waxing Gibbous, 86% visible
Pressure 30.39 in
Visibility 3.0 miles
Clouds Few 400 ft
Mostly Cloudy 800 ft
Windchill 12 °F
Dew Point 15 °F
Humidity 92%
Rainfall 0.00 in
Snow Depth Not available.
UV 1 out of 12
Pollen .70 out of 12
Air Quality Not available.
Flu Activity Not available.
METAR KAPA 011553Z 11003KT 3SM BR FEW004 BKN008 M08/M09 A3017 RMK AO2 SFC VIS 5 SNE51 SLP290 P0000 T10831094

More Conditions Fewer Conditions

Pressure 30.39 in
Visibility 3.0 miles
Clouds Few 400 ft
Mostly Cloudy 800 ft
Windchill 12 °F
Dew Point 15 °F
Humidity 92%
Rainfall 0.00 in
Snow Depth Not available.
UV 1 out of 12
Pollen .70 out of 12
Air Quality Not available.
Flu Activity Not available.
METAR KAPA 011553Z 11003KT 3SM BR FEW004 BKN008 M08/M09 A3017 RMK AO2 SFC VIS 5 SNE51 SLP290 P0000 T10831094

More Conditions Fewer Conditions

10-Day Weather Forecast

Almanac

Astronomy

Mar. 01, 2015 Rise Set
Actual Time
Civil Twilight
Nautical Twilight
Astronomical Twilight
Moon
Length of Visible Light
Length of Day
Tomorrow will be .
, % of the Moon is Illuminated

Today's Extremes

State Highs State Lows

Community

WunderPhotos

Upload Photos

1,801,440 photos uploaded!

WunderBlogs® & News

Nearby

Air Quality

  Air Quality AQ Index Pollutant
Not available.

Snow Depth

Station Depth Elevation

Earthquake Activity

City Distance Mag. Time & Date
Minimum magnitude displayed is 2.5.

Coastal Water Temperatures

Place Temperature

Nearby Weather Stations